sensor_id;sensor_type;location;lat;lon;timestamp;P1;durP1;ratioP1;P2;durP2;ratioP2
54125;SDS011;40360;52.992;6.796;2022-09-01T00:02:18;5.30;;;2.28;;
54125;SDS011;40360;52.992;6.796;2022-09-01T00:04:44;2.45;;;1.80;;
54125;SDS011;40360;52.992;6.796;2022-09-01T00:07:11;3.47;;;2.30;;
54125;SDS011;40360;52.992;6.796;2022-09-01T00:09:37;4.32;;;2.13;;
54125;SDS011;40360;52.992;6.796;2022-09-01T00:12:05;2.60;;;1.77;;
54125;SDS011;40360;52.992;6.796;2022-09-01T00:14:33;3.67;;;2.10;;
54125;SDS011;40360;52.992;6.796;2022-09-01T00:17:03;5.05;;;1.95;;
54125;SDS011;40360;52.992;6.796;2022-09-01T00:19:31;5.07;;;1.88;;
54125;SDS011;40360;52.992;6.796;2022-09-01T00:21:58;6.47;;;1.70;;
54125;SDS011;40360;52.992;6.796;2022-09-01T00:24:24;3.25;;;2.17;;
54125;SDS011;40360;52.992;6.796;2022-09-01T00:26:51;2.45;;;1.88;;
54125;SDS011;40360;52.992;6.796;2022-09-01T00:29:18;1.90;;;1.60;;
54125;SDS011;40360;52.992;6.796;2022-09-01T00:31:44;3.22;;;1.92;;
54125;SDS011;40360;52.992;6.796;2022-09-01T00:34:10;1.77;;;1.60;;
54125;SDS011;40360;52.992;6.796;2022-09-01T00:36:36;4.28;;;1.80;;
54125;SDS011;40360;52.992;6.796;2022-09-01T00:39:03;1.70;;;1.60;;
54125;SDS011;40360;52.992;6.796;2022-09-01T00:41:30;3.15;;;1.73;;
54125;SDS011;40360;52.992;6.796;2022-09-01T00:43:58;3.53;;;1.92;;
54125;SDS011;40360;52.992;6.796;2022-09-01T00:46:31;2.47;;;1.65;;
54125;SDS011;40360;52.992;6.796;2022-09-01T00:49:03;3.13;;;1.60;;
54125;SDS011;40360;52.992;6.796;2022-09-01T00:51:35;4.18;;;2.03;;
54125;SDS011;40360;52.992;6.796;2022-09-01T00:54:03;2.83;;;1.85;;
54125;SDS011;40360;52.992;6.796;2022-09-01T00:56:30;2.72;;;1.58;;
54125;SDS011;40360;52.992;6.796;2022-09-01T00:58:58;2.10;;;1.77;;
54125;SDS011;40360;52.992;6.796;2022-09-01T01:01:25;2.72;;;2.17;;
54125;SDS011;40360;52.992;6.796;2022-09-01T01:03:50;3.00;;;1.70;;
54125;SDS011;40360;52.992;6.796;2022-09-01T01:06:16;4.25;;;1.73;;
54125;SDS011;40360;52.992;6.796;2022-09-01T01:08:47;2.22;;;1.70;;
54125;SDS011;40360;52.992;6.796;2022-09-01T01:11:26;3.63;;;1.63;;
54125;SDS011;40360;52.992;6.796;2022-09-01T01:13:58;3.35;;;1.95;;
54125;SDS011;40360;52.992;6.796;2022-09-01T01:16:36;3.50;;;1.98;;
54125;SDS011;40360;52.992;6.796;2022-09-01T01:19:51;3.47;;;1.80;;
54125;SDS011;40360;52.992;6.796;2022-09-01T01:22:26;2.60;;;1.92;;
54125;SDS011;40360;52.992;6.796;2022-09-01T01:25:28;2.42;;;1.75;;
54125;SDS011;40360;52.992;6.796;2022-09-01T01:30:46;3.38;;;1.80;;
54125;SDS011;40360;52.992;6.796;2022-09-01T01:33:16;2.80;;;1.95;;
54125;SDS011;40360;52.992;6.796;2022-09-01T01:35:46;2.88;;;1.80;;
54125;SDS011;40360;52.992;6.796;2022-09-01T01:38:12;2.78;;;1.92;;
54125;SDS011;40360;52.992;6.796;2022-09-01T01:40:39;2.72;;;2.00;;
54125;SDS011;40360;52.992;6.796;2022-09-01T01:43:05;3.35;;;1.90;;
54125;SDS011;40360;52.992;6.796;2022-09-01T01:45:32;1.50;;;1.40;;
54125;SDS011;40360;52.992;6.796;2022-09-01T01:47:58;3.92;;;2.22;;
54125;SDS011;40360;52.992;6.796;2022-09-01T01:50:26;2.38;;;1.85;;
54125;SDS011;40360;52.992;6.796;2022-09-01T01:52:59;1.70;;;1.38;;
54125;SDS011;40360;52.992;6.796;2022-09-01T01:55:26;2.83;;;2.00;;
54125;SDS011;40360;52.992;6.796;2022-09-01T01:57:54;3.13;;;1.95;;
54125;SDS011;40360;52.992;6.796;2022-09-01T02:00:26;2.90;;;1.67;;
54125;SDS011;40360;52.992;6.796;2022-09-01T02:02:54;2.95;;;1.90;;
54125;SDS011;40360;52.992;6.796;2022-09-01T02:05:26;2.88;;;1.80;;
54125;SDS011;40360;52.992;6.796;2022-09-01T02:08:00;2.13;;;1.73;;
54125;SDS011;40360;52.992;6.796;2022-09-01T02:10:30;3.83;;;1.60;;
54125;SDS011;40360;52.992;6.796;2022-09-01T02:12:59;2.00;;;1.80;;
54125;SDS011;40360;52.992;6.796;2022-09-01T02:15:30;2.15;;;1.73;;
54125;SDS011;40360;52.992;6.796;2022-09-01T02:17:59;2.47;;;1.77;;
54125;SDS011;40360;52.992;6.796;2022-09-01T02:20:26;3.00;;;1.90;;
54125;SDS011;40360;52.992;6.796;2022-09-01T02:22:56;2.70;;;2.05;;
54125;SDS011;40360;52.992;6.796;2022-09-01T02:25:34;3.67;;;2.75;;
54125;SDS011;40360;52.992;6.796;2022-09-01T02:28:01;2.42;;;2.00;;
54125;SDS011;40360;52.992;6.796;2022-09-01T02:30:28;2.90;;;2.15;;
54125;SDS011;40360;52.992;6.796;2022-09-01T02:32:57;3.72;;;2.25;;
54125;SDS011;40360;52.992;6.796;2022-09-01T02:35:23;4.60;;;1.83;;
54125;SDS011;40360;52.992;6.796;2022-09-01T02:37:55;2.80;;;2.25;;
54125;SDS011;40360;52.992;6.796;2022-09-01T02:40:23;3.50;;;1.90;;
54125;SDS011;40360;52.992;6.796;2022-09-01T02:42:48;2.28;;;1.58;;
54125;SDS011;40360;52.992;6.796;2022-09-01T02:45:17;2.40;;;1.98;;
54125;SDS011;40360;52.992;6.796;2022-09-01T02:47:44;2.90;;;1.90;;
54125;SDS011;40360;52.992;6.796;2022-09-01T02:50:11;3.08;;;1.92;;
54125;SDS011;40360;52.992;6.796;2022-09-01T02:52:41;2.17;;;1.98;;
54125;SDS011;40360;52.992;6.796;2022-09-01T02:55:07;8.50;;;2.00;;
54125;SDS011;40360;52.992;6.796;2022-09-01T02:57:33;3.30;;;1.77;;
54125;SDS011;40360;52.992;6.796;2022-09-01T03:00:00;2.30;;;1.70;;
54125;SDS011;40360;52.992;6.796;2022-09-01T03:02:26;2.55;;;2.00;;
54125;SDS011;40360;52.992;6.796;2022-09-01T03:04:53;4.60;;;2.15;;
54125;SDS011;40360;52.992;6.796;2022-09-01T03:07:19;3.53;;;1.98;;
54125;SDS011;40360;52.992;6.796;2022-09-01T03:09:50;4.78;;;1.83;;
54125;SDS011;40360;52.992;6.796;2022-09-01T03:12:16;3.05;;;2.13;;
54125;SDS011;40360;52.992;6.796;2022-09-01T03:14:43;3.70;;;2.10;;
54125;SDS011;40360;52.992;6.796;2022-09-01T03:17:09;2.55;;;1.90;;
54125;SDS011;40360;52.992;6.796;2022-09-01T03:19:35;2.50;;;2.22;;
54125;SDS011;40360;52.992;6.796;2022-09-01T03:22:08;4.03;;;2.25;;
54125;SDS011;40360;52.992;6.796;2022-09-01T03:24:34;4.75;;;1.92;;
54125;SDS011;40360;52.992;6.796;2022-09-01T03:27:00;4.55;;;2.65;;
54125;SDS011;40360;52.992;6.796;2022-09-01T03:29:25;3.85;;;2.10;;
54125;SDS011;40360;52.992;6.796;2022-09-01T03:31:51;3.33;;;2.35;;
54125;SDS011;40360;52.992;6.796;2022-09-01T03:34:17;3.05;;;2.30;;
54125;SDS011;40360;52.992;6.796;2022-09-01T03:36:44;3.55;;;2.20;;
54125;SDS011;40360;52.992;6.796;2022-09-01T03:39:14;6.35;;;2.35;;
54125;SDS011;40360;52.992;6.796;2022-09-01T03:41:43;3.58;;;2.05;;
54125;SDS011;40360;52.992;6.796;2022-09-01T03:44:09;2.90;;;2.38;;
54125;SDS011;40360;52.992;6.796;2022-09-01T03:46:36;2.15;;;1.95;;
54125;SDS011;40360;52.992;6.796;2022-09-01T03:49:04;2.83;;;2.53;;
54125;SDS011;40360;52.992;6.796;2022-09-01T03:51:32;5.28;;;2.80;;
54125;SDS011;40360;52.992;6.796;2022-09-01T03:53:58;2.53;;;2.15;;
54125;SDS011;40360;52.992;6.796;2022-09-01T03:56:25;2.50;;;2.30;;
54125;SDS011;40360;52.992;6.796;2022-09-01T03:58:53;4.13;;;2.33;;
54125;SDS011;40360;52.992;6.796;2022-09-01T04:01:21;5.90;;;2.65;;
54125;SDS011;40360;52.992;6.796;2022-09-01T04:03:48;4.40;;;2.60;;
54125;SDS011;40360;52.992;6.796;2022-09-01T04:06:16;5.30;;;2.40;;
54125;SDS011;40360;52.992;6.796;2022-09-01T04:08:43;2.75;;;2.28;;
54125;SDS011;40360;52.992;6.796;2022-09-01T04:11:17;2.88;;;2.22;;
54125;SDS011;40360;52.992;6.796;2022-09-01T04:13:47;5.00;;;2.63;;
54125;SDS011;40360;52.992;6.796;2022-09-01T04:16:18;3.58;;;2.53;;
54125;SDS011;40360;52.992;6.796;2022-09-01T04:19:07;5.40;;;2.40;;
54125;SDS011;40360;52.992;6.796;2022-09-01T04:21:44;8.00;;;2.28;;
54125;SDS011;40360;52.992;6.796;2022-09-01T04:24:17;5.43;;;3.00;;
54125;SDS011;40360;52.992;6.796;2022-09-01T04:26:43;5.10;;;3.42;;
54125;SDS011;40360;52.992;6.796;2022-09-01T04:29:11;3.95;;;2.47;;
54125;SDS011;40360;52.992;6.796;2022-09-01T04:31:37;9.20;;;3.08;;
54125;SDS011;40360;52.992;6.796;2022-09-01T04:34:05;2.70;;;2.45;;
54125;SDS011;40360;52.992;6.796;2022-09-01T04:36:50;3.40;;;2.55;;
54125;SDS011;40360;52.992;6.796;2022-09-01T04:39:18;3.05;;;2.40;;
54125;SDS011;40360;52.992;6.796;2022-09-01T04:41:44;3.00;;;2.63;;
54125;SDS011;40360;52.992;6.796;2022-09-01T04:44:11;3.85;;;3.00;;
54125;SDS011;40360;52.992;6.796;2022-09-01T04:46:41;4.15;;;2.60;;
54125;SDS011;40360;52.992;6.796;2022-09-01T04:49:10;5.10;;;2.70;;
54125;SDS011;40360;52.992;6.796;2022-09-01T04:51:40;5.85;;;2.90;;
54125;SDS011;40360;52.992;6.796;2022-09-01T04:54:08;5.53;;;3.00;;
54125;SDS011;40360;52.992;6.796;2022-09-01T04:56:38;3.33;;;2.78;;
54125;SDS011;40360;52.992;6.796;2022-09-01T04:59:05;3.95;;;2.92;;
54125;SDS011;40360;52.992;6.796;2022-09-01T05:01:33;3.58;;;2.88;;
54125;SDS011;40360;52.992;6.796;2022-09-01T05:20:31;4.40;;;2.85;;
54125;SDS011;40360;52.992;6.796;2022-09-01T05:22:56;5.15;;;2.95;;
54125;SDS011;40360;52.992;6.796;2022-09-01T05:25:22;4.85;;;3.13;;
54125;SDS011;40360;52.992;6.796;2022-09-01T05:27:48;4.22;;;2.72;;
54125;SDS011;40360;52.992;6.796;2022-09-01T05:30:15;10.18;;;3.30;;
54125;SDS011;40360;52.992;6.796;2022-09-01T05:32:42;3.25;;;2.88;;
54125;SDS011;40360;52.992;6.796;2022-09-01T05:35:09;7.75;;;3.10;;
54125;SDS011;40360;52.992;6.796;2022-09-01T05:37:35;3.63;;;3.28;;
54125;SDS011;40360;52.992;6.796;2022-09-01T05:40:05;6.32;;;3.92;;
54125;SDS011;40360;52.992;6.796;2022-09-01T05:42:33;3.95;;;2.85;;
54125;SDS011;40360;52.992;6.796;2022-09-01T05:45:03;4.15;;;3.33;;
54125;SDS011;40360;52.992;6.796;2022-09-01T05:47:29;7.43;;;3.75;;
54125;SDS011;40360;52.992;6.796;2022-09-01T05:50:02;4.72;;;3.63;;
54125;SDS011;40360;52.992;6.796;2022-09-01T05:52:30;4.03;;;3.13;;
54125;SDS011;40360;52.992;6.796;2022-09-01T05:54:58;3.53;;;2.90;;
54125;SDS011;40360;52.992;6.796;2022-09-01T05:57:25;3.72;;;3.00;;
54125;SDS011;40360;52.992;6.796;2022-09-01T05:59:50;3.60;;;3.15;;
54125;SDS011;40360;52.992;6.796;2022-09-01T06:02:18;3.88;;;3.35;;
54125;SDS011;40360;52.992;6.796;2022-09-01T06:04:47;6.00;;;3.35;;
54125;SDS011;40360;52.992;6.796;2022-09-01T06:07:16;4.00;;;3.60;;
54125;SDS011;40360;52.992;6.796;2022-09-01T06:09:43;5.43;;;3.80;;
54125;SDS011;40360;52.992;6.796;2022-09-01T06:12:11;4.88;;;3.20;;
54125;SDS011;40360;52.992;6.796;2022-09-01T06:14:41;6.13;;;3.30;;
54125;SDS011;40360;52.992;6.796;2022-09-01T06:17:08;4.75;;;3.28;;
54125;SDS011;40360;52.992;6.796;2022-09-01T06:19:35;4.60;;;3.53;;
54125;SDS011;40360;52.992;6.796;2022-09-01T06:22:02;4.18;;;3.17;;
54125;SDS011;40360;52.992;6.796;2022-09-01T06:24:28;5.10;;;3.25;;
54125;SDS011;40360;52.992;6.796;2022-09-01T06:26:54;3.03;;;2.72;;
54125;SDS011;40360;52.992;6.796;2022-09-01T06:29:19;4.32;;;2.80;;
54125;SDS011;40360;52.992;6.796;2022-09-01T06:31:45;3.72;;;3.25;;
54125;SDS011;40360;52.992;6.796;2022-09-01T06:34:15;3.78;;;2.60;;
54125;SDS011;40360;52.992;6.796;2022-09-01T06:36:42;3.55;;;2.60;;
54125;SDS011;40360;52.992;6.796;2022-09-01T06:39:09;5.70;;;3.03;;
54125;SDS011;40360;52.992;6.796;2022-09-01T06:41:44;4.70;;;2.67;;
54125;SDS011;40360;52.992;6.796;2022-09-01T06:44:12;3.10;;;2.60;;
54125;SDS011;40360;52.992;6.796;2022-09-01T06:46:38;8.07;;;3.30;;
54125;SDS011;40360;52.992;6.796;2022-09-01T06:49:04;4.93;;;2.45;;
54125;SDS011;40360;52.992;6.796;2022-09-01T06:51:30;3.55;;;2.78;;
54125;SDS011;40360;52.992;6.796;2022-09-01T06:53:55;4.22;;;2.80;;
54125;SDS011;40360;52.992;6.796;2022-09-01T06:56:23;4.50;;;3.15;;
54125;SDS011;40360;52.992;6.796;2022-09-01T06:58:52;8.27;;;3.85;;
54125;SDS011;40360;52.992;6.796;2022-09-01T07:01:19;6.70;;;3.47;;
54125;SDS011;40360;52.992;6.796;2022-09-01T07:03:47;5.22;;;2.40;;
54125;SDS011;40360;52.992;6.796;2022-09-01T07:06:15;4.05;;;2.58;;
54125;SDS011;40360;52.992;6.796;2022-09-01T07:08:43;3.72;;;2.55;;
54125;SDS011;40360;52.992;6.796;2022-09-01T07:11:18;4.15;;;2.70;;
54125;SDS011;40360;52.992;6.796;2022-09-01T07:13:51;7.50;;;2.70;;
54125;SDS011;40360;52.992;6.796;2022-09-01T07:16:21;2.40;;;2.20;;
54125;SDS011;40360;52.992;6.796;2022-09-01T07:18:49;3.15;;;2.42;;
54125;SDS011;40360;52.992;6.796;2022-09-01T07:21:16;5.20;;;2.88;;
54125;SDS011;40360;52.992;6.796;2022-09-01T07:23:43;4.57;;;2.47;;
54125;SDS011;40360;52.992;6.796;2022-09-01T07:26:09;4.30;;;2.20;;
54125;SDS011;40360;52.992;6.796;2022-09-01T07:28:36;4.57;;;2.40;;
54125;SDS011;40360;52.992;6.796;2022-09-01T07:31:02;6.07;;;2.22;;
54125;SDS011;40360;52.992;6.796;2022-09-01T07:33:29;3.83;;;2.63;;
54125;SDS011;40360;52.992;6.796;2022-09-01T07:35:56;6.32;;;2.30;;
54125;SDS011;40360;52.992;6.796;2022-09-01T07:38:25;7.93;;;2.70;;
54125;SDS011;40360;52.992;6.796;2022-09-01T07:40:52;4.50;;;2.47;;
54125;SDS011;40360;52.992;6.796;2022-09-01T07:43:20;5.10;;;2.33;;
54125;SDS011;40360;52.992;6.796;2022-09-01T07:45:52;4.47;;;2.45;;
54125;SDS011;40360;52.992;6.796;2022-09-01T07:48:20;3.00;;;2.22;;
54125;SDS011;40360;52.992;6.796;2022-09-01T07:50:48;3.15;;;2.20;;
54125;SDS011;40360;52.992;6.796;2022-09-01T07:53:18;4.45;;;2.30;;
54125;SDS011;40360;52.992;6.796;2022-09-01T07:55:48;2.88;;;2.28;;
54125;SDS011;40360;52.992;6.796;2022-09-01T07:58:16;4.38;;;2.88;;
54125;SDS011;40360;52.992;6.796;2022-09-01T08:00:43;2.65;;;1.98;;
54125;SDS011;40360;52.992;6.796;2022-09-01T08:03:12;3.75;;;2.10;;
54125;SDS011;40360;52.992;6.796;2022-09-01T08:05:38;4.05;;;2.00;;
54125;SDS011;40360;52.992;6.796;2022-09-01T08:08:05;4.60;;;2.50;;
54125;SDS011;40360;52.992;6.796;2022-09-01T08:10:30;4.43;;;2.35;;
54125;SDS011;40360;52.992;6.796;2022-09-01T08:12:56;2.78;;;2.10;;
54125;SDS011;40360;52.992;6.796;2022-09-01T08:15:23;3.72;;;1.80;;
54125;SDS011;40360;52.992;6.796;2022-09-01T08:17:49;2.83;;;1.80;;
54125;SDS011;40360;52.992;6.796;2022-09-01T08:20:15;3.15;;;1.98;;
54125;SDS011;40360;52.992;6.796;2022-09-01T08:22:40;4.18;;;1.60;;
54125;SDS011;40360;52.992;6.796;2022-09-01T08:25:07;2.90;;;2.13;;
54125;SDS011;40360;52.992;6.796;2022-09-01T08:27:35;5.18;;;1.92;;
54125;SDS011;40360;52.992;6.796;2022-09-01T08:30:06;3.42;;;1.50;;
54125;SDS011;40360;52.992;6.796;2022-09-01T08:32:34;4.25;;;2.03;;
54125;SDS011;40360;52.992;6.796;2022-09-01T08:35:01;4.63;;;1.50;;
54125;SDS011;40360;52.992;6.796;2022-09-01T08:37:29;5.40;;;2.17;;
54125;SDS011;40360;52.992;6.796;2022-09-01T08:39:55;2.80;;;1.50;;
54125;SDS011;40360;52.992;6.796;2022-09-01T08:45:08;3.63;;;1.88;;
54125;SDS011;40360;52.992;6.796;2022-09-01T08:47:51;3.25;;;1.38;;
54125;SDS011;40360;52.992;6.796;2022-09-01T08:50:18;2.00;;;1.30;;
54125;SDS011;40360;52.992;6.796;2022-09-01T08:52:46;1.88;;;1.13;;
54125;SDS011;40360;52.992;6.796;2022-09-01T08:57:54;3.40;;;1.30;;
54125;SDS011;40360;52.992;6.796;2022-09-01T09:00:26;3.75;;;1.42;;
54125;SDS011;40360;52.992;6.796;2022-09-01T09:03:29;2.38;;;1.45;;
54125;SDS011;40360;52.992;6.796;2022-09-01T09:06:02;3.97;;;1.42;;
54125;SDS011;40360;52.992;6.796;2022-09-01T09:15:10;2.10;;;1.25;;
54125;SDS011;40360;52.992;6.796;2022-09-01T09:17:17;3.53;;;1.70;;
54125;SDS011;40360;52.992;6.796;2022-09-01T09:19:46;2.05;;;1.10;;
54125;SDS011;40360;52.992;6.796;2022-09-01T09:22:13;1.20;;;0.75;;
54125;SDS011;40360;52.992;6.796;2022-09-01T09:24:45;2.80;;;0.90;;
54125;SDS011;40360;52.992;6.796;2022-09-01T09:27:39;2.08;;;0.93;;
54125;SDS011;40360;52.992;6.796;2022-09-01T09:30:11;1.73;;;0.98;;
54125;SDS011;40360;52.992;6.796;2022-09-01T09:32:57;2.92;;;1.20;;
54125;SDS011;40360;52.992;6.796;2022-09-01T09:38:13;4.22;;;0.93;;
54125;SDS011;40360;52.992;6.796;2022-09-01T09:40:56;1.08;;;0.90;;
54125;SDS011;40360;52.992;6.796;2022-09-01T09:43:22;2.58;;;0.93;;
54125;SDS011;40360;52.992;6.796;2022-09-01T09:45:49;1.13;;;0.88;;
54125;SDS011;40360;52.992;6.796;2022-09-01T09:48:27;3.05;;;0.80;;
54125;SDS011;40360;52.992;6.796;2022-09-01T09:50:55;1.67;;;0.75;;
54125;SDS011;40360;52.992;6.796;2022-09-01T09:53:44;3.63;;;0.82;;
54125;SDS011;40360;52.992;6.796;2022-09-01T09:56:18;1.30;;;0.80;;
54125;SDS011;40360;52.992;6.796;2022-09-01T09:58:49;3.13;;;0.90;;
54125;SDS011;40360;52.992;6.796;2022-09-01T10:03:49;3.80;;;1.00;;
54125;SDS011;40360;52.992;6.796;2022-09-01T10:09:16;0.90;;;0.70;;
54125;SDS011;40360;52.992;6.796;2022-09-01T10:12:01;4.22;;;0.85;;
54125;SDS011;40360;52.992;6.796;2022-09-01T10:14:32;1.65;;;0.73;;
54125;SDS011;40360;52.992;6.796;2022-09-01T10:17:06;1.20;;;0.75;;
54125;SDS011;40360;52.992;6.796;2022-09-01T10:19:37;1.67;;;0.80;;
54125;SDS011;40360;52.992;6.796;2022-09-01T10:22:07;2.47;;;0.70;;
54125;SDS011;40360;52.992;6.796;2022-09-01T10:24:34;1.60;;;0.88;;
54125;SDS011;40360;52.992;6.796;2022-09-01T10:27:04;2.15;;;0.68;;
54125;SDS011;40360;52.992;6.796;2022-09-01T10:32:00;1.80;;;0.88;;
54125;SDS011;40360;52.992;6.796;2022-09-01T10:34:32;1.30;;;0.60;;
54125;SDS011;40360;52.992;6.796;2022-09-01T10:37:00;1.08;;;0.60;;
54125;SDS011;40360;52.992;6.796;2022-09-01T10:39:26;3.35;;;0.70;;
54125;SDS011;40360;52.992;6.796;2022-09-01T10:41:52;2.95;;;0.65;;
54125;SDS011;40360;52.992;6.796;2022-09-01T10:46:55;1.33;;;0.90;;
54125;SDS011;40360;52.992;6.796;2022-09-01T10:51:51;4.22;;;1.10;;
54125;SDS011;40360;52.992;6.796;2022-09-01T10:57:03;1.95;;;0.60;;
54125;SDS011;40360;52.992;6.796;2022-09-01T10:59:36;1.10;;;0.60;;
54125;SDS011;40360;52.992;6.796;2022-09-01T11:07:13;2.05;;;0.98;;
54125;SDS011;40360;52.992;6.796;2022-09-01T11:15:34;1.70;;;0.70;;
54125;SDS011;40360;52.992;6.796;2022-09-01T11:18:06;1.38;;;0.93;;
54125;SDS011;40360;52.992;6.796;2022-09-01T11:20:40;2.22;;;0.80;;
54125;SDS011;40360;52.992;6.796;2022-09-01T11:23:26;1.05;;;0.68;;
54125;SDS011;40360;52.992;6.796;2022-09-01T11:26:00;1.45;;;0.73;;
54125;SDS011;40360;52.992;6.796;2022-09-01T11:28:46;3.90;;;0.80;;
54125;SDS011;40360;52.992;6.796;2022-09-01T11:31:23;5.38;;;1.35;;
54125;SDS011;40360;52.992;6.796;2022-09-01T11:42:00;0.98;;;0.80;;
54125;SDS011;40360;52.992;6.796;2022-09-01T11:47:22;2.67;;;0.70;;
54125;SDS011;40360;52.992;6.796;2022-09-01T11:49:53;2.28;;;0.90;;
54125;SDS011;40360;52.992;6.796;2022-09-01T11:52:26;1.20;;;0.88;;
54125;SDS011;40360;52.992;6.796;2022-09-01T11:54:54;1.90;;;1.10;;
54125;SDS011;40360;52.992;6.796;2022-09-01T11:57:28;3.35;;;1.30;;
54125;SDS011;40360;52.992;6.796;2022-09-01T11:59:57;5.28;;;1.05;;
54125;SDS011;40360;52.992;6.796;2022-09-01T12:02:27;2.05;;;0.75;;
54125;SDS011;40360;52.992;6.796;2022-09-01T12:04:58;2.67;;;1.33;;
54125;SDS011;40360;52.992;6.796;2022-09-01T12:07:37;2.75;;;0.77;;
54125;SDS011;40360;52.992;6.796;2022-09-01T12:10:13;2.95;;;0.70;;
54125;SDS011;40360;52.992;6.796;2022-09-01T12:12:58;5.28;;;1.25;;
54125;SDS011;40360;52.992;6.796;2022-09-01T12:15:34;2.33;;;1.02;;
54125;SDS011;40360;52.992;6.796;2022-09-01T12:18:11;2.25;;;0.88;;
54125;SDS011;40360;52.992;6.796;2022-09-01T12:20:37;0.80;;;0.60;;
54125;SDS011;40360;52.992;6.796;2022-09-01T12:23:14;2.47;;;0.73;;
54125;SDS011;40360;52.992;6.796;2022-09-01T12:25:43;1.40;;;0.80;;
54125;SDS011;40360;52.992;6.796;2022-09-01T12:28:09;2.30;;;0.65;;
54125;SDS011;40360;52.992;6.796;2022-09-01T12:30:35;1.02;;;0.82;;
54125;SDS011;40360;52.992;6.796;2022-09-01T12:33:05;4.57;;;0.77;;
54125;SDS011;40360;52.992;6.796;2022-09-01T12:35:33;3.42;;;0.70;;
54125;SDS011;40360;52.992;6.796;2022-09-01T12:38:19;1.50;;;0.77;;
54125;SDS011;40360;52.992;6.796;2022-09-01T12:40:47;2.78;;;1.35;;
54125;SDS011;40360;52.992;6.796;2022-09-01T12:43:35;1.83;;;1.00;;
54125;SDS011;40360;52.992;6.796;2022-09-01T12:46:04;1.75;;;0.98;;
54125;SDS011;40360;52.992;6.796;2022-09-01T12:50:59;1.17;;;1.08;;
54125;SDS011;40360;52.992;6.796;2022-09-01T12:53:39;0.95;;;0.70;;
54125;SDS011;40360;52.992;6.796;2022-09-01T12:56:15;2.20;;;0.80;;
54125;SDS011;40360;52.992;6.796;2022-09-01T12:58:45;4.20;;;1.02;;
54125;SDS011;40360;52.992;6.796;2022-09-01T13:04:09;0.90;;;0.70;;
54125;SDS011;40360;52.992;6.796;2022-09-01T13:06:39;1.27;;;0.73;;
54125;SDS011;40360;52.992;6.796;2022-09-01T13:09:04;1.95;;;0.85;;
54125;SDS011;40360;52.992;6.796;2022-09-01T13:11:30;1.17;;;0.77;;
54125;SDS011;40360;52.992;6.796;2022-09-01T13:13:56;3.72;;;1.13;;
54125;SDS011;40360;52.992;6.796;2022-09-01T13:16:21;1.80;;;0.80;;
54125;SDS011;40360;52.992;6.796;2022-09-01T13:18:47;3.05;;;0.85;;
54125;SDS011;40360;52.992;6.796;2022-09-01T13:21:13;0.98;;;0.60;;
54125;SDS011;40360;52.992;6.796;2022-09-01T13:23:39;3.10;;;1.05;;
54125;SDS011;40360;52.992;6.796;2022-09-01T13:26:05;2.40;;;0.80;;
54125;SDS011;40360;52.992;6.796;2022-09-01T13:28:31;2.20;;;1.27;;
54125;SDS011;40360;52.992;6.796;2022-09-01T13:30:58;1.63;;;0.80;;
54125;SDS011;40360;52.992;6.796;2022-09-01T13:33:29;2.08;;;0.60;;
54125;SDS011;40360;52.992;6.796;2022-09-01T13:35:56;1.55;;;0.80;;
54125;SDS011;40360;52.992;6.796;2022-09-01T13:38:22;0.90;;;0.60;;
54125;SDS011;40360;52.992;6.796;2022-09-01T13:40:49;0.82;;;0.73;;
54125;SDS011;40360;52.992;6.796;2022-09-01T13:43:16;1.20;;;0.68;;
54125;SDS011;40360;52.992;6.796;2022-09-01T13:45:43;3.78;;;0.75;;
54125;SDS011;40360;52.992;6.796;2022-09-01T13:48:09;1.55;;;0.47;;
54125;SDS011;40360;52.992;6.796;2022-09-01T13:50:36;1.20;;;0.70;;
54125;SDS011;40360;52.992;6.796;2022-09-01T13:53:05;1.30;;;0.80;;
54125;SDS011;40360;52.992;6.796;2022-09-01T13:55:33;2.13;;;0.80;;
54125;SDS011;40360;52.992;6.796;2022-09-01T13:58:01;2.28;;;0.93;;
54125;SDS011;40360;52.992;6.796;2022-09-01T14:00:28;2.50;;;0.60;;
54125;SDS011;40360;52.992;6.796;2022-09-01T14:02:57;0.95;;;0.70;;
54125;SDS011;40360;52.992;6.796;2022-09-01T14:05:29;1.00;;;0.68;;
54125;SDS011;40360;52.992;6.796;2022-09-01T14:07:57;1.30;;;0.93;;
54125;SDS011;40360;52.992;6.796;2022-09-01T14:10:23;0.95;;;0.80;;
54125;SDS011;40360;52.992;6.796;2022-09-01T14:12:50;3.22;;;1.17;;
54125;SDS011;40360;52.992;6.796;2022-09-01T14:15:17;3.42;;;0.70;;
54125;SDS011;40360;52.992;6.796;2022-09-01T14:17:44;4.30;;;1.20;;
54125;SDS011;40360;52.992;6.796;2022-09-01T14:20:14;1.73;;;0.80;;
54125;SDS011;40360;52.992;6.796;2022-09-01T14:22:44;4.22;;;0.80;;
54125;SDS011;40360;52.992;6.796;2022-09-01T14:25:11;2.10;;;0.70;;
54125;SDS011;40360;52.992;6.796;2022-09-01T14:27:37;1.58;;;0.73;;
54125;SDS011;40360;52.992;6.796;2022-09-01T14:30:04;3.28;;;0.80;;
54125;SDS011;40360;52.992;6.796;2022-09-01T14:32:32;0.70;;;0.70;;
54125;SDS011;40360;52.992;6.796;2022-09-01T14:34:58;0.50;;;0.50;;
54125;SDS011;40360;52.992;6.796;2022-09-01T14:37:24;1.92;;;0.60;;
54125;SDS011;40360;52.992;6.796;2022-09-01T14:39:53;1.23;;;0.75;;
54125;SDS011;40360;52.992;6.796;2022-09-01T14:42:20;0.95;;;0.60;;
54125;SDS011;40360;52.992;6.796;2022-09-01T14:44:49;2.45;;;0.60;;
54125;SDS011;40360;52.992;6.796;2022-09-01T14:47:15;2.20;;;0.60;;
54125;SDS011;40360;52.992;6.796;2022-09-01T14:49:41;0.75;;;0.50;;
54125;SDS011;40360;52.992;6.796;2022-09-01T14:52:08;4.22;;;0.50;;
54125;SDS011;40360;52.992;6.796;2022-09-01T14:54:35;0.88;;;0.70;;
54125;SDS011;40360;52.992;6.796;2022-09-01T14:57:02;2.05;;;0.68;;
54125;SDS011;40360;52.992;6.796;2022-09-01T14:59:28;1.73;;;0.55;;
54125;SDS011;40360;52.992;6.796;2022-09-01T15:01:54;0.90;;;0.77;;
54125;SDS011;40360;52.992;6.796;2022-09-01T15:04:20;1.13;;;0.70;;
54125;SDS011;40360;52.992;6.796;2022-09-01T15:06:46;3.10;;;0.68;;
54125;SDS011;40360;52.992;6.796;2022-09-01T15:09:11;1.73;;;0.40;;
54125;SDS011;40360;52.992;6.796;2022-09-01T15:11:37;1.77;;;0.77;;
54125;SDS011;40360;52.992;6.796;2022-09-01T15:14:04;1.80;;;0.70;;
54125;SDS011;40360;52.992;6.796;2022-09-01T15:16:29;2.53;;;0.75;;
54125;SDS011;40360;52.992;6.796;2022-09-01T15:18:59;1.73;;;0.52;;
54125;SDS011;40360;52.992;6.796;2022-09-01T15:21:26;2.10;;;0.70;;
54125;SDS011;40360;52.992;6.796;2022-09-01T15:23:54;3.22;;;0.50;;
54125;SDS011;40360;52.992;6.796;2022-09-01T15:26:20;2.75;;;1.13;;
54125;SDS011;40360;52.992;6.796;2022-09-01T15:28:46;0.77;;;0.50;;
54125;SDS011;40360;52.992;6.796;2022-09-01T15:31:13;3.22;;;0.80;;
54125;SDS011;40360;52.992;6.796;2022-09-01T15:33:42;0.60;;;0.60;;
54125;SDS011;40360;52.992;6.796;2022-09-01T15:36:12;3.65;;;0.60;;
54125;SDS011;40360;52.992;6.796;2022-09-01T15:38:40;3.75;;;0.60;;
54125;SDS011;40360;52.992;6.796;2022-09-01T15:41:05;1.80;;;0.85;;
54125;SDS011;40360;52.992;6.796;2022-09-01T15:43:31;4.40;;;0.70;;
54125;SDS011;40360;52.992;6.796;2022-09-01T15:45:57;2.83;;;0.85;;
54125;SDS011;40360;52.992;6.796;2022-09-01T15:48:24;1.88;;;0.60;;
54125;SDS011;40360;52.992;6.796;2022-09-01T15:50:51;1.80;;;0.63;;
54125;SDS011;40360;52.992;6.796;2022-09-01T15:53:18;1.92;;;0.88;;
54125;SDS011;40360;52.992;6.796;2022-09-01T15:55:44;2.92;;;0.73;;
54125;SDS011;40360;52.992;6.796;2022-09-01T15:58:12;4.38;;;0.85;;
54125;SDS011;40360;52.992;6.796;2022-09-01T16:00:40;1.27;;;0.73;;
54125;SDS011;40360;52.992;6.796;2022-09-01T16:03:06;1.48;;;0.73;;
54125;SDS011;40360;52.992;6.796;2022-09-01T16:05:33;2.50;;;0.80;;
54125;SDS011;40360;52.992;6.796;2022-09-01T16:08:00;0.40;;;0.40;;
54125;SDS011;40360;52.992;6.796;2022-09-01T16:10:27;1.85;;;0.50;;
54125;SDS011;40360;52.992;6.796;2022-09-01T16:12:54;0.80;;;0.60;;
54125;SDS011;40360;52.992;6.796;2022-09-01T16:15:21;3.70;;;0.80;;
54125;SDS011;40360;52.992;6.796;2022-09-01T16:20:53;2.20;;;0.60;;